Log Book

From Tyrel's Wiki
Revision as of 23:32, 28 May 2021 by Tyrel (talk | contribs)
(diff) ← Older revision | Latest revision (diff) | Newer revision → (diff)
VFR Flying Logbook
Date AircraftID From To TotalTime PIC SIC Night Solo XC Day T/O Day Landing Night T/O Night Landing Landings Actual Inst Sim Inst Dual Simulated Ground Comments
2020-12-30 N44836 KEEN KEEN 0.6 0 0 0 0 0 1 1 0 0 1 0 0 0.6 0 0 PPL Checkride #2 - PASSED AWW YESSSS
2020-12-27 N43337 KEEN KEEN 1.2 0 0 0 0 0 5 1 0 0 5 0 0 1.2 0 0 Emergency Landing Practice
2020-11-10 N43337 KEEN KEEN 1.8 1.8 0 0 0 0 3 3 0 0 3 0 0 0 0 0 PPL Checkride #1 - disapproval due to emergency landings
2020-11-05 N43337 KEEN KEEN 1.7 0 0 0 0 0 3 3 0 0 3 0 0 1.7 0 0 mock checkride - Gene
2020-10-27 N43337 KEEN KEEN 1.8 0 0 0.5 0 0 1 1 0 0 1 0 0.1 1.8 0 0 Mock Checkride - David
2020-10-07 N43337 KEEN KEEN 2 0 0 0 0 0 4 4 0 0 4 0 0.3 2 0 0 mock private checkride - Gene
2020-10-04 N43337 KEEN KEEN 1.7 1.7 0 0 1.7 0 1 1 0 0 1 0 0 0 0 0 S turns
2020-10-04 N44836 KEEN KEEN 1.3 1.3 0 0 1.3 0 1 1 0 0 1 0 0 0 0 0 S turns
2020-10-02 N43337 KEEN KEEN 0.7 0 0 0 0 0 1 1 0 0 1 0 0 0.7 0 0 Spin awareness training
2020-10-01 N43337 KEEN KEEN 1.2 1.2 0 0 1.2 0 1 1 0 0 1 0 0 0 0 0 steep turns takeoff x-wind go around
2020-10-01 N43337 KEEN KEEN 1.7 0 0 0 0 0 7 2 0 0 7 0 0 1.7 0 0 shortfield takeoff and landing softfield takeoff and landing emergency landing (02/14???) go around slip to landing
2020-09-24 N43337 KEEN KEEN 0.5 0 0 0 0 0 1 1 0 0 1 0 0 0.5 0 0 flight planning (KEEN - CTR - KTTN etc got to VOR verify and on track then headed home because gene had to solo another student)
2020-09-22 N43337 KEEN 42.94N/72.52W 0.6 0 0 0 0 0 1 0 0 0 0 0 0 0.7 0 0 slow flight stalls steep turns turns about a point shortfield takeoffs
2020-09-22 N43337 42.94N/72.52W KEEN 1 0 0 0 0 0 2 1 0 0 3 0 0 1 0 0 (BUMPED REC ON FOREFLIGHT) slow flight stalls steep turns turns about a point shortfield takeoffs
2020-03-11 N43337 KEEN KEEN 2.1 0 0 0 0 0 6 6 0 0 6 0 0 2.1 0 0 mock checkride all maneuvers except abort takeoff
2020-03-06 N44836 KEEN KEEN 1.7 0 0 0 0 0 2 2 0 0 2 0 0.5 1.7 0 0 instrument GPS Nav unusual attitude stalls slow flight turns about a point short field
2020-03-06 N43337 KEEN KLEB 1.5 0 0 0 0 1.5 2 2 0 0 2 0 1 1.5 0 0 Instrument turns to heading climbs and descents VOR tracking (went to KLEB cus gene's other student was having problems and went back to KLEB)
2020-03-06 N43337 KLEB KEEN 0.7 0 0 0 0 0.7 1 1 0 0 1 0 0.5 0.7 0 0 return trip from KLEB vfr only
2020-02-22 N44836 KEEN KEEN 3.1 3.1 0 0 3.1 3.1 3 3 0 0 3 0 0 0 0 0 KEEN-KLEB flight following 3500' straight and level runway 25 KLEB-KSFM flight following 5500' KSFM-KEEN flight following 6500' runway 02 xwind landing slow ground speed cus of headwind on way back
2020-02-01 N43337 KEEN KEEN 1.5 1.5 0 0 1.5 0 8 8 0 0 8 0 0 0 0 0 shortfield takeoff and landings pattern work low ceiling 3800
2020-01-18 N44836 KEEN KEEN 1.7 0 0 0 0 0 3 1 0 0 3 0 0 1.7 0 0 s-turns short field takeoff and landings KGDM
2019-12-28 N43337 KEEN KEEN 1.3 1.3 0 0 1.3 0 6 6 0 0 6 0 0 0 0 0 pattern shortfield takeoff and landings
2019-11-17 N43337 KEEN KEEN 1.3 1.3 0 0 1.3 0 3 1 0 0 3 0 0 0 0 0 level turns 30° 45° followed CT river ground track held altitude well
2019-11-16 N43337 KEEN KEEN 1.2 0 0 0 0 0 2 2 0 0 2 0 0.5 1.2 0 0 Instrument work heading and altitudes climbs descents const airspeed unusual attitude vor navigation
2019-11-10 N44836 KEEN KEEN 1.7 1.7 0 0 1.7 0 5 5 0 0 5 0 0 0 0 0 Level turns pattern shortfield takeoff and landings
2019-11-10 N44836 KEEN KEEN 1.1 1.1 0 0 1.1 0 6 6 0 0 6 0 0 0 0 0 pattern
2019-11-09 N43337 KEEN KEEN 1.1 0 0 0 0 0 1 1 0 0 1 0 0 1.1 0 0 Slow flight Power off Andean stalls Steep turns Emergency procs
2019-11-09 N43337 KEEN KEEN 1.9 0.8 0 0 0.8 0 7 7 0 0 10 0 0 1.1 0 0
2019-11-03 N43337 KEEN KEEN 1.1 0 0 0 0 0 3 3 0 0 3 0 0 1.1 0 0 Steep turns Slow flight Power on stall With David
2019-11-02 N43337 KMHT KEEN 0.5 0 0 0 0 0 1 1 0 0 1 0 0 0.5 0 0
2019-11-02 N43337 KEEN KMHT 1 0 0 0 0 0 2 2 0 0 2 0 0 1 0 0 Dead reckoning Class C airspace Atc flight following Controlled tower
2019-10-26 N43337 KPSM KEEN 0.9 0 0 0 0 0.9 1 1 0 0 1 0 0 0.9 0 0 Vor nav Flight following Controlled tower
2019-10-26 N43337 KEEN KLCI 1.5 0 0 0 0 1.5 1 1 0 0 1 0 0 1.5 0 0 Vor nav X-w landing
2019-10-26 N43337 KLCI KPSM 0.7 0 0 0 0 0.7 1 1 0 0 1 0 0 0.7 0 0 Vor nav Controlled tower
2019-10-18 n43337 KEEN KEEN 1.3 0 0 0 0 0 1 1 0 0 1 0 0 1.3 0 0 Turns about a point Steep turns XW t/o/l Runway 32
2019-10-18 N43337 KEEN KEEN 1.3 0 0 0 0 0 5 5 0 0 5 0 0 1.3 0 0 Soft field t/o/l Short field t/o/l Emergency landing and go around runway 32
2019-10-16 N43337 KEEN KLEB 2.3 0 0 0 0 2.3 2 2 0 0 2 0 0 2.3 0 0 GPS tracking Vor tracking Tower landing
2019-10-16 N43337 KLEB KEEN 1 0 0 0 0 1 1 1 0 0 1 0 0 1 0 0 Vor tracking Controlled tower
2019-10-03 N43337 KEEN KEEN 1.1 0 0 0 0 0 4 4 0 0 6 0 0 1.1 0 0 Normal takeoff Soft field takeoff Emergency abort takeoff Go around Slip to landing Emergency landing
2019-10-03 N43337 KEEN KEEN 1.1 0 0 0 0 0 5 5 0 0 5 0 0 1.1 0 0 Soft field t/o/l Abort takeoff Emergency procedures rw02 0 flap landing
2019-10-02 N43337 KEEN KEEN 1 0 0 0 0 0 1 1 0 0 1 0 0 1 0 0 Normal takeoff and landing Stalls Steep turns
2019-08-31 N43337 KEEN KEEN 1.1 0 0 0 0 0 2 2 0 0 2 0 0 1.1 0 0 Normal takeoff landing Short field takeoff landing Steep turns Constant speed climb and descents
2019-04-22 N3572M KBED KBED 0.2 0 0 0 0 0 0 0 0 0 0 0 0 0.2 0 0 Weather came in fast was 1500' then dropped to 800ft. Only taxied with intent to fly so can log.
2019-04-14 N238ND KBED KBED 1.5 0 0 0 0 0 1 1 0 0 1 0 0 1.5 0 0 Steep turn Steep spiral Slow flight Power off stall Controlled tower
2019-04-11 N75202 KBED KBED 1.2 0 0 0 0 0 6 6 0 0 6 0 0 1.2 0 0 Controlled tower Pattern Crosswind Shortfield landing
2019-03-30 N267ND KBED KBED 1.2 0 0 0 0 0 7 7 0 0 7 0 0 1.2 0 0 Take offs and landings - Normal soft short Controlled tower
2019-03-27 N267ND KBED KBED 1.4 0 0 0 0 0 3 3 0 0 3 0 0 1.4 0 0 Short field takeoff Steep turns Stalls Slow flight Controlled tower
2019-03-24 N222ND KBED KBED 1.4 0 0 0 0 0 2 2 0 0 2 0 0 1.4 0 0 Shortfield takeoff Steep turns Stalls Slow flight Controlled tower
2019-03-21 N263ND KBED KBED 1.1 0 0 0 0 0 6 6 0 0 7 0 0 1.1 0 0 Landings Controlled tower
2019-03-18 N3572M KBED KBED 1.4 0 0 0 0 0 3 3 0 0 3 0 0 1.4 0 0 Steep turns Take offs and landings Controlled tower
2012-09-11 N43337 KEEN KEEN 1.4 0 0 0.4 0 0 4 4 1 1 5 0 0 1.4 0 0 Practical test prep
2012-08-27 N43337 KEEN KEEN 1 1 0 0 1 0 3 3 0 0 3 0 0 0 0 0 Turns about a point Rain X-wind
2012-08-26 N43337 KEEN KEEN 1.3 1.3 0 0 1.3 0 2 2 0 0 2 0 0 0 0 0 Slow flight Steep turns
2012-08-04 N43337 KEEN KEEN 1.3 0 0 0 0 0 1 1 0 0 1 0 0 1.3 0 0 Steep turns Slow flight Stalls Turns about a point Pattern Engine failure proc
2012-07-30 N43337 KEEN KEEN 0.9 0.9 0 0 0.9 0 2 2 0 0 2 0 0 0 0 0 Steep turns Turns about a point
2012-07-29 N43337 KEEN KEEN 0.7 0.7 0 0 0.7 0 3 3 0 0 3 0 0 0 0 0 Pattern work Rain storm so called early
2012-07-25 N43337 KEEN KEEN 0.4 0.4 0 0 0.4 0 2 2 0 0 2 0 0 0 0 0 Pattern x-wind landing Stomach ache called early day
2012-07-19 N43337 KEEN KEEN 1.1 1.1 0 0 1.1 0 2 2 0 0 2 0 0 0 0 0 Steep turns Turns about a point
2012-07-18 N43337 KEEN KEEN 1.2 1.2 0 0 1.2 0 7 7 0 0 7 0 0 0 0 0 Pattern work X-wind
2012-07-14 N43337 KEEN KEEN 1.5 0 0 0 0 0 3 3 0 0 3 0 0 1.5 0 0 Steep turns Slow flight Stalls Turns about a point Soft field take off short field landing Engine failure practice
2012-07-05 N43337 KEEN KEEN 1.4 0 0 0 0 0 6 6 0 0 6 0 0 1.4 0 0 Normal short field soft field takeoffs and landings Go around Forward slip
2012-06-30 N43337 KEEN KEEN 0.3 0.3 0 0 0.3 0 1 1 0 0 1 0 0 0 0 0 Aborted take off at 100 ft Too windy got scared too long since last flight
2012-04-28 N43337 KEEN KEEN 0.5 0.5 0 0 0.5 0 2 2 0 0 2 0 0 0 0 0 Pattern 10+ wind Gust 18+
2012-04-14 N43337 KEEN KEEN 1.5 0 0 0 0 0 4 4 0 0 4 0 0 1.5 0 0 Steep turns Pattern x-Wind
2012-02-04 N43337 KEEN KEEN 0.6 0.6 0 0 0.6 0 2 2 0 0 2 0 0 0 0 0 Pattern
2012-01-04 N43337 KEEN KEEN 0.3 0.3 0 0 0.3 0 1 1 0 0 1 0 0 0 0 0 One pattern loop got scared too windy
2011-12-17 N43337 KEEN KEEN 1.6 0 0 0 0 0 4 4 0 0 4 0 0 1.6 0 0 Slow flight Stalls Steep turns Pattern Soft field and short field takeoff Short field landing
2011-11-02 N43337 KPSM KEEN 1.2 0 0 1.2 0 1.2 0 0 1 1 1 0 0 1.2 0 0 Night Lost procedures Controlled tower NOTE: This is part of TWO flights as one cross country ForeFlight isn't counting it right as a night cross country of over 100 miles
2011-11-02 N43337 KEEN KPSM 1.5 0 0 1.5 0 1.5 0 0 1 1 1 0 0 1.5 0 0 Night Vor navigation Flight following Controlled tower landing Night cross country NOTE: This is part of TWO flights as one cross country ForeFlight isn't counting it right as a night cross country of over 100 miles
2011-09-21 N43337 KEEN KEEN 0.9 0 0 0.9 0 0 0 0 1 1 1 0 0.5 0.9 0 0 Night xtra attempt Instrument diversion back to originating airport
2011-09-17 N43337 KCON KPSM 0.5 0.5 0 0 0.5 0.5 1 1 0 0 1 0 0 0 0 0 Vor Controlled tower Pilotage and dead reckoning
2011-09-17 N43337 KPSM KEEN 1 1 0 0 1 1 1 1 0 0 1 0 0 0 0 0 Vor Pilotage and dead reckoning Takeoff controlled tower
2011-09-17 N43337 KEEN KCON 0.5 0.5 0 0 0.5 0.5 1 1 0 0 1 0 0 0 0 0 Vor Pilotage and dead reckoning
2011-08-24 0 0 0 0 0 0 0 0 0 0 0 0 1 0 0 1 Red bird Vor navigation tracking bearings and radials
2011-08-23 0 0 0 0 0 0 0 0 0 0 0 1.8 0 1.8 Red bird GPS nav 4 basics 2 ILS approaches VFR Into IMC Inadvertent IMC
2011-08-22 N43337 KLEB KGFL 1 1 0 0 1 1 1 1 0 0 1 0 0 0 0 0 GPS Vor
2011-08-22 N43337 KGFL KEEN 1.1 1.1 0 0 1.1 1.1 1 1 0 0 1 0 0 0 0 0 Vor Dead reckoning
2011-08-22 N43337 KEEN KLEB 1 1 0 0 1 1 3 3 0 0 3 0 0 0 0 0 Dead reckoning Right pattern Controlled tower Vor
2011-08-13 N43337 KEEN KLEB 0.8 0 0 0 0 0.8 1 1 0 0 1 0 0 0.8 0 0 Vor Pilotage and dead rec
2011-08-13 N43337 KRUT KGFL 0.7 0 0 0 0 0.7 1 1 0 0 1 0 0 0.7 0 0
2011-08-13 N43337 KLEB KRUT 0.7 0 0 0 0 0.7 1 1 0 0 1 0 0 0.7 0 0 Vor Pilotage and dead rec Lost procedures Deviation to alt airfield
2011-08-13 N43337 KGFL KEEN 1 0 0 0 0 1 1 1 0 0 1 0 0 1 0 0
2011-07-23 N43337 KEEN KCON 0.7 0 0 0 0 0.7 1 1 0 0 1 0 0 0.7 0 0 Pilotage and dead rec VOR
2011-07-23 N43337 KCON KPSM 0.8 0 0 0 0 0.8 1 1 0 0 1 0 0 0.8 0 0 Vor Controlled tower
2011-07-23 N43337 KPSM KEEN 1.2 0 0 0 0 1.2 1 1 0 0 1 0 0 1.2 0 0 Vor Flight following
2011-07-16 N43337 KEEN KORE 0.5 0.5 0 0 0.5 0 1 1 0 0 1 0 0 0 0 0 Pilotage and dead rec Parachutes in pattern
2011-07-16 N43337 KORE KEEN 0.4 0.4 0 0 0.4 0 1 1 0 0 1 0 0 0 0 0 Pilotage and dead rec
2011-07-15 N43337 KEEN KEEN 1.8 0 0 1.8 0 0 0 0 8 8 16 0 0 1.8 0 0 Night landings & t/o ILS 02 KEEN
2011-07-06 N43337 KEEN KORE 0.6 0 0 0 0 0 2 2 0 0 2 0 0 0.6 0 0 Pilotage and dead rec parachutists @ KORE
2011-07-06 N43337 KORE KEEN 0.5 0 0 0 0 0 1 1 0 0 1 0 0 0.5 0 0 Pilotage dead rec
2011-07-06 N43337 KEEN KEEN 1.4 0 0 0 0 0 5 5 0 0 5 0 0 1.4 0 0 Pilotage and dead reckoning nav Vor tracking
2011-06-18 N43337 KEEN KEEN 1.5 1.5 0 0 1.5 0 8 8 0 0 8 0 0 0 0 0 Solo Pattern
2011-06-15 N43337 KEEN KEEN 0.9 0.9 0 0 0.9 0 2 2 0 0 2 0 0 0 0 0 Solo Pattern Straight and level Steep turns
2011-06-10 N43337 KEEN KEEN 1 1 0 0 1 0 6 6 0 0 6 0 0 0 0 Solo Pattern
2011-06-04 N43337 KEEN KEEN 0.5 0.5 0 0 0.5 0 3 3 0 0 3 0 0 0 0 0 Solo Pattern Variable wind
2011-06-04 N43337 KEEN KEEN 0.7 0 0 0 0 0 5 5 0 0 5 0 0 0.7 0 0 Pattern Engine failures Short field t/o
2011-05-26 N43337 KEEN KEEN 1 0 0 0 0 0 6 6 0 0 6 0 0 1 0 0 Pattern Engine failure Power off stalls Steep spiral
2011-05-21 N43337 KEEN KEEN 1.8 0 0 0 0 0 9 9 0 0 9 0 0 1.8 0 0 Pattern Engine failure Excellent landings
2011-05-14 N43337 KEEN KEEN 1.5 0 0 0 0 0 9 9 0 0 9 0 0 1.5 0 0 Pattern X-wind 6k+s T/o landing with go around
2011-04-30 N43337 KEEN KEEN 1.5 0 0 0 0 0 8 8 0 0 8 0 0 1.5 0 0 Pattern X-wind t/o & landing Extending downwind
2011-04-09 N43337 KEEN KEEN 1 0 0 0 0 0 3 3 0 0 3 0 0 1 0 0 Pattern X-wind Wind shear
2011-03-19 N43337 KEEN KEEN 1.2 0 0 0 0 0 6 6 0 0 6 0 0 1.2 0 0 X-wind t/o & landing Engine failure on t/o & downwind
2011-03-12 N43337 KEEN KEEN 1.2 0 0 0 0 0 8 8 0 0 8 0 0 1.2 0 0 Pattern X-wind t/o & landing
2011-02-26 N43337 KEEN KEEN 1.1 0 0 0 0 0 7 7 0 0 7 0 0 1.1 0 0 Pattern X-wind t/o & landings
2011-02-22 N43337 KEEN KEEN 1.5 0 0 0.2 0 8 8 0 0 8 0 0 1.5 0 0 Pattern X-wind t/o & landings
2011-02-12 N43337 KEEN KEEN 1.5 0 0 0 0 0 7 7 0 0 7 0 0 1.5 0 0 Pattern X-wind t/o and landings Go around
2011-02-09 N43337 KEEN KEEN 1.4 0 0 0 0 0 3 3 0 0 3 0 0 1.4 0 0 Slow flight Stalls Steep turns Pattern
2011-02-05 N43337 KEEN KEEN 0.4 0 0 0 0 0 1 1 0 0 1 0 0 0.4 0 0 Min wx Vis and ceiling Pattern
2011-01-29 N43337 KEEN KEEN 1.6 0 0 0 0 0 8 8 0 0 8 0 0 1.6 0 0 Pattern Calm wind
2011-01-22 N43337 KEEN KEEN 1.2 0 0 0 0 0 1 1 0 0 1 0 0 1.2 0 0 Slow flight Power off stalls Steep turns
2010-09-25 N43337 KEEN KEEN 1.1 0 0 0 0 0 1 1 0 0 1 0 0 1.1 0 0 Turns to heading Const altitude in windy conditions
2010-07-31 N43337 KEEN KEEN 1 0 0 0 0 0 1 1 0 0 1 0 0 1 0 0 Const alt Turns Turns to heading Turns about al point
2010-05-21 N43337 KEEN KEEN 1.3 0 0 0 0 0 2 2 0 0 2 0 0 1.3 0 0 Straight and level Steep turns Turns to heading Climbs Descents Landing
2010-03-19 N43337 KEEN KEEN 1.3 0 0 0 0 0 2 2 0 0 2 0 0 1.3 0 0 4 basic turn to heading const alt
2010-03-17 N5136C KEEN KEEN 1 0 0 0 0 0 1 1 0 0 1 0 0 1 0 0 Straight and level Climbs Descents Turns